sensor_id;sensor_type;location;lat;lon;timestamp;temperature;humidity
42965;DHT22;28604;51.204;22.552;2024-03-29T00:01:39;11.00;76.30
42965;DHT22;28604;51.204;22.552;2024-03-29T00:04:04;11.00;76.70
42965;DHT22;28604;51.204;22.552;2024-03-29T00:06:31;11.10;76.40
42965;DHT22;28604;51.204;22.552;2024-03-29T00:08:56;11.00;76.30
42965;DHT22;28604;51.204;22.552;2024-03-29T00:11:22;11.10;76.50
42965;DHT22;28604;51.204;22.552;2024-03-29T00:13:48;11.10;76.70
42965;DHT22;28604;51.204;22.552;2024-03-29T00:16:14;11.10;76.00
42965;DHT22;28604;51.204;22.552;2024-03-29T00:18:40;11.10;76.40
42965;DHT22;28604;51.204;22.552;2024-03-29T00:21:06;11.10;76.10
42965;DHT22;28604;51.204;22.552;2024-03-29T00:23:31;11.10;76.40
42965;DHT22;28604;51.204;22.552;2024-03-29T00:25:57;11.20;76.10
42965;DHT22;28604;51.204;22.552;2024-03-29T00:28:24;11.20;76.00
42965;DHT22;28604;51.204;22.552;2024-03-29T00:30:50;11.20;76.40
42965;DHT22;28604;51.204;22.552;2024-03-29T00:33:16;11.20;76.00
42965;DHT22;28604;51.204;22.552;2024-03-29T00:35:41;11.20;76.10
42965;DHT22;28604;51.204;22.552;2024-03-29T00:38:07;11.20;75.90
42965;DHT22;28604;51.204;22.552;2024-03-29T00:40:35;11.20;76.30
42965;DHT22;28604;51.204;22.552;2024-03-29T00:43:01;11.20;75.90
42965;DHT22;28604;51.204;22.552;2024-03-29T00:45:27;11.20;76.10
42965;DHT22;28604;51.204;22.552;2024-03-29T00:47:54;11.20;76.00
42965;DHT22;28604;51.204;22.552;2024-03-29T00:50:20;11.30;76.10
42965;DHT22;28604;51.204;22.552;2024-03-29T00:52:45;11.20;76.20
42965;DHT22;28604;51.204;22.552;2024-03-29T00:55:14;11.30;76.10
42965;DHT22;28604;51.204;22.552;2024-03-29T00:57:39;11.30;75.90
42965;DHT22;28604;51.204;22.552;2024-03-29T01:00:05;11.30;75.70
42965;DHT22;28604;51.204;22.552;2024-03-29T01:02:31;11.30;76.10
42965;DHT22;28604;51.204;22.552;2024-03-29T01:04:57;11.30;76.20
42965;DHT22;28604;51.204;22.552;2024-03-29T01:07:23;11.40;76.00
42965;DHT22;28604;51.204;22.552;2024-03-29T01:09:49;11.40;76.20
42965;DHT22;28604;51.204;22.552;2024-03-29T01:12:15;11.30;76.30
42965;DHT22;28604;51.204;22.552;2024-03-29T01:14:41;11.30;76.40
42965;DHT22;28604;51.204;22.552;2024-03-29T01:17:06;11.30;76.60
42965;DHT22;28604;51.204;22.552;2024-03-29T01:19:32;11.30;76.50
42965;DHT22;28604;51.204;22.552;2024-03-29T01:21:58;11.30;76.50
42965;DHT22;28604;51.204;22.552;2024-03-29T01:24:24;11.30;76.60
42965;DHT22;28604;51.204;22.552;2024-03-29T01:26:50;11.30;76.50
42965;DHT22;28604;51.204;22.552;2024-03-29T01:29:16;11.30;76.60
42965;DHT22;28604;51.204;22.552;2024-03-29T01:31:42;11.30;77.20
42965;DHT22;28604;51.204;22.552;2024-03-29T01:34:08;11.30;77.60
42965;DHT22;28604;51.204;22.552;2024-03-29T01:36:33;11.30;78.20
42965;DHT22;28604;51.204;22.552;2024-03-29T01:38:59;11.30;78.50
42965;DHT22;28604;51.204;22.552;2024-03-29T01:41:26;11.30;79.00
42965;DHT22;28604;51.204;22.552;2024-03-29T01:43:53;11.30;79.70
42965;DHT22;28604;51.204;22.552;2024-03-29T01:46:19;11.30;80.10
42965;DHT22;28604;51.204;22.552;2024-03-29T01:48:46;11.30;80.90
42965;DHT22;28604;51.204;22.552;2024-03-29T01:51:13;11.30;80.70
42965;DHT22;28604;51.204;22.552;2024-03-29T01:53:39;11.30;80.40
42965;DHT22;28604;51.204;22.552;2024-03-29T01:56:05;11.30;81.00
42965;DHT22;28604;51.204;22.552;2024-03-29T01:58:32;11.30;80.50
42965;DHT22;28604;51.204;22.552;2024-03-29T02:00:58;11.30;80.20
42965;DHT22;28604;51.204;22.552;2024-03-29T02:03:25;11.30;80.20
42965;DHT22;28604;51.204;22.552;2024-03-29T02:05:51;11.30;79.90
42965;DHT22;28604;51.204;22.552;2024-03-29T02:08:18;11.30;79.90
42965;DHT22;28604;51.204;22.552;2024-03-29T02:10:46;11.30;80.00
42965;DHT22;28604;51.204;22.552;2024-03-29T02:13:12;11.30;79.60
42965;DHT22;28604;51.204;22.552;2024-03-29T02:15:41;11.30;80.10
42965;DHT22;28604;51.204;22.552;2024-03-29T02:18:07;11.30;80.60
42965;DHT22;28604;51.204;22.552;2024-03-29T02:20:33;11.20;80.60
42965;DHT22;28604;51.204;22.552;2024-03-29T02:23:02;11.20;80.90
42965;DHT22;28604;51.204;22.552;2024-03-29T02:25:28;11.20;80.80
42965;DHT22;28604;51.204;22.552;2024-03-29T02:27:54;11.20;81.20
42965;DHT22;28604;51.204;22.552;2024-03-29T02:30:21;11.20;80.70
42965;DHT22;28604;51.204;22.552;2024-03-29T02:32:47;11.10;80.40
42965;DHT22;28604;51.204;22.552;2024-03-29T02:35:13;11.10;80.70
42965;DHT22;28604;51.204;22.552;2024-03-29T02:37:40;11.10;80.70
42965;DHT22;28604;51.204;22.552;2024-03-29T02:40:06;11.10;80.70
42965;DHT22;28604;51.204;22.552;2024-03-29T02:42:32;11.00;81.30
42965;DHT22;28604;51.204;22.552;2024-03-29T02:44:58;10.90;81.30
42965;DHT22;28604;51.204;22.552;2024-03-29T02:47:24;10.90;81.30
42965;DHT22;28604;51.204;22.552;2024-03-29T02:49:50;10.90;81.80
42965;DHT22;28604;51.204;22.552;2024-03-29T02:52:16;10.90;82.40
42965;DHT22;28604;51.204;22.552;2024-03-29T02:54:41;10.90;82.70
42965;DHT22;28604;51.204;22.552;2024-03-29T02:57:07;10.80;82.80
42965;DHT22;28604;51.204;22.552;2024-03-29T02:59:33;10.70;81.90
42965;DHT22;28604;51.204;22.552;2024-03-29T03:01:59;10.70;82.60
42965;DHT22;28604;51.204;22.552;2024-03-29T03:04:25;10.60;81.90
42965;DHT22;28604;51.204;22.552;2024-03-29T03:06:51;10.60;82.40
42965;DHT22;28604;51.204;22.552;2024-03-29T03:09:17;10.50;82.80
42965;DHT22;28604;51.204;22.552;2024-03-29T03:12:01;10.50;83.00
42965;DHT22;28604;51.204;22.552;2024-03-29T03:14:27;10.40;82.90
42965;DHT22;28604;51.204;22.552;2024-03-29T03:16:53;10.40;83.70
42965;DHT22;28604;51.204;22.552;2024-03-29T03:19:19;10.40;83.70
42965;DHT22;28604;51.204;22.552;2024-03-29T03:21:45;10.40;84.70
42965;DHT22;28604;51.204;22.552;2024-03-29T03:24:11;10.30;85.10
42965;DHT22;28604;51.204;22.552;2024-03-29T03:26:37;10.30;85.50
42965;DHT22;28604;51.204;22.552;2024-03-29T03:29:04;10.20;85.90
42965;DHT22;28604;51.204;22.552;2024-03-29T03:31:30;10.20;85.90
42965;DHT22;28604;51.204;22.552;2024-03-29T03:33:55;10.20;87.00
42965;DHT22;28604;51.204;22.552;2024-03-29T03:36:21;10.10;86.60
42965;DHT22;28604;51.204;22.552;2024-03-29T03:38:48;10.10;86.30
42965;DHT22;28604;51.204;22.552;2024-03-29T03:41:14;10.00;86.80
42965;DHT22;28604;51.204;22.552;2024-03-29T03:43:40;9.90;87.20
42965;DHT22;28604;51.204;22.552;2024-03-29T03:46:06;9.90;88.00
42965;DHT22;28604;51.204;22.552;2024-03-29T03:48:31;9.80;87.40
42965;DHT22;28604;51.204;22.552;2024-03-29T03:50:57;9.80;87.40
42965;DHT22;28604;51.204;22.552;2024-03-29T03:53:23;9.80;87.50
42965;DHT22;28604;51.204;22.552;2024-03-29T03:55:49;9.80;87.40
42965;DHT22;28604;51.204;22.552;2024-03-29T03:58:15;9.70;87.50
42965;DHT22;28604;51.204;22.552;2024-03-29T04:00:41;9.70;87.80
42965;DHT22;28604;51.204;22.552;2024-03-29T04:03:07;9.70;87.10
42965;DHT22;28604;51.204;22.552;2024-03-29T04:05:36;9.70;86.70
42965;DHT22;28604;51.204;22.552;2024-03-29T04:08:02;9.60;86.10
42965;DHT22;28604;51.204;22.552;2024-03-29T04:10:28;9.50;87.40
42965;DHT22;28604;51.204;22.552;2024-03-29T04:12:53;9.50;86.20
42965;DHT22;28604;51.204;22.552;2024-03-29T04:15:19;9.50;85.80
42965;DHT22;28604;51.204;22.552;2024-03-29T04:17:45;9.50;86.30
42965;DHT22;28604;51.204;22.552;2024-03-29T04:20:11;9.50;86.10
42965;DHT22;28604;51.204;22.552;2024-03-29T04:22:37;9.50;85.70
42965;DHT22;28604;51.204;22.552;2024-03-29T04:25:03;9.50;85.60
42965;DHT22;28604;51.204;22.552;2024-03-29T04:27:29;9.40;86.00
42965;DHT22;28604;51.204;22.552;2024-03-29T04:29:55;9.40;86.00
42965;DHT22;28604;51.204;22.552;2024-03-29T04:32:21;9.40;86.80
42965;DHT22;28604;51.204;22.552;2024-03-29T04:34:50;9.40;87.00
42965;DHT22;28604;51.204;22.552;2024-03-29T04:37:16;9.40;87.00
42965;DHT22;28604;51.204;22.552;2024-03-29T04:39:42;9.40;87.20
42965;DHT22;28604;51.204;22.552;2024-03-29T04:42:08;9.40;87.70
42965;DHT22;28604;51.204;22.552;2024-03-29T04:44:34;9.40;87.40
42965;DHT22;28604;51.204;22.552;2024-03-29T04:47:00;9.40;88.30
42965;DHT22;28604;51.204;22.552;2024-03-29T04:49:27;9.50;88.60
42965;DHT22;28604;51.204;22.552;2024-03-29T04:51:59;9.40;88.60
42965;DHT22;28604;51.204;22.552;2024-03-29T04:54:26;9.40;89.30
42965;DHT22;28604;51.204;22.552;2024-03-29T04:56:52;9.50;89.00
42965;DHT22;28604;51.204;22.552;2024-03-29T04:59:18;9.50;90.00
42965;DHT22;28604;51.204;22.552;2024-03-29T05:01:45;9.60;89.60
42965;DHT22;28604;51.204;22.552;2024-03-29T05:04:19;9.60;89.10
42965;DHT22;28604;51.204;22.552;2024-03-29T05:06:54;9.60;89.20
42965;DHT22;28604;51.204;22.552;2024-03-29T05:09:20;9.60;89.70
42965;DHT22;28604;51.204;22.552;2024-03-29T05:11:46;9.60;89.60
42965;DHT22;28604;51.204;22.552;2024-03-29T05:14:15;9.60;89.20
42965;DHT22;28604;51.204;22.552;2024-03-29T05:16:44;9.60;89.10
42965;DHT22;28604;51.204;22.552;2024-03-29T05:19:11;9.60;89.00
42965;DHT22;28604;51.204;22.552;2024-03-29T05:21:37;9.60;89.80
42965;DHT22;28604;51.204;22.552;2024-03-29T05:24:03;9.60;89.20
42965;DHT22;28604;51.204;22.552;2024-03-29T05:26:29;9.70;89.80
42965;DHT22;28604;51.204;22.552;2024-03-29T05:28:56;9.60;90.30
42965;DHT22;28604;51.204;22.552;2024-03-29T05:31:23;9.70;90.10
42965;DHT22;28604;51.204;22.552;2024-03-29T05:33:49;9.70;90.00
42965;DHT22;28604;51.204;22.552;2024-03-29T05:36:14;9.70;89.60
42965;DHT22;28604;51.204;22.552;2024-03-29T05:38:40;9.70;89.40
42965;DHT22;28604;51.204;22.552;2024-03-29T05:41:06;9.80;89.50
42965;DHT22;28604;51.204;22.552;2024-03-29T05:43:32;9.80;89.30
42965;DHT22;28604;51.204;22.552;2024-03-29T05:45:58;9.80;89.00
42965;DHT22;28604;51.204;22.552;2024-03-29T05:48:26;9.80;89.40
42965;DHT22;28604;51.204;22.552;2024-03-29T05:50:51;9.80;88.70
42965;DHT22;28604;51.204;22.552;2024-03-29T05:53:17;9.80;88.90
42965;DHT22;28604;51.204;22.552;2024-03-29T05:55:43;9.80;89.30
42965;DHT22;28604;51.204;22.552;2024-03-29T05:58:09;9.80;88.30
42965;DHT22;28604;51.204;22.552;2024-03-29T06:00:35;9.70;88.30
42965;DHT22;28604;51.204;22.552;2024-03-29T06:03:01;9.70;88.60
42965;DHT22;28604;51.204;22.552;2024-03-29T06:05:30;9.80;90.10
42965;DHT22;28604;51.204;22.552;2024-03-29T06:07:56;10.00;90.30
42965;DHT22;28604;51.204;22.552;2024-03-29T06:10:21;10.40;89.00
42965;DHT22;28604;51.204;22.552;2024-03-29T06:12:47;10.90;88.40
42965;DHT22;28604;51.204;22.552;2024-03-29T06:15:13;11.60;86.40
42965;DHT22;28604;51.204;22.552;2024-03-29T06:18:15;12.30;84.40
42965;DHT22;28604;51.204;22.552;2024-03-29T06:20:42;13.10;82.00
42965;DHT22;28604;51.204;22.552;2024-03-29T06:23:07;13.70;79.60
42965;DHT22;28604;51.204;22.552;2024-03-29T06:25:33;14.20;77.80
42965;DHT22;28604;51.204;22.552;2024-03-29T06:27:59;14.70;76.40
42965;DHT22;28604;51.204;22.552;2024-03-29T06:30:25;15.20;75.30
42965;DHT22;28604;51.204;22.552;2024-03-29T06:32:51;15.60;73.80
42965;DHT22;28604;51.204;22.552;2024-03-29T06:35:17;16.00;72.30
42965;DHT22;28604;51.204;22.552;2024-03-29T06:37:46;16.20;70.50
42965;DHT22;28604;51.204;22.552;2024-03-29T06:40:11;16.50;69.80
42965;DHT22;28604;51.204;22.552;2024-03-29T06:42:38;16.70;69.30
42965;DHT22;28604;51.204;22.552;2024-03-29T06:45:04;17.10;68.70
42965;DHT22;28604;51.204;22.552;2024-03-29T06:47:31;17.40;67.90
42965;DHT22;28604;51.204;22.552;2024-03-29T06:49:57;17.70;66.80
42965;DHT22;28604;51.204;22.552;2024-03-29T06:52:23;18.00;66.30
42965;DHT22;28604;51.204;22.552;2024-03-29T06:54:51;18.30;65.20
42965;DHT22;28604;51.204;22.552;2024-03-29T06:57:17;18.60;64.50
42965;DHT22;28604;51.204;22.552;2024-03-29T06:59:46;18.90;63.60
42965;DHT22;28604;51.204;22.552;2024-03-29T07:02:12;19.10;62.50
42965;DHT22;28604;51.204;22.552;2024-03-29T07:04:38;19.40;62.70
42965;DHT22;28604;51.204;22.552;2024-03-29T07:07:04;19.70;61.30
42965;DHT22;28604;51.204;22.552;2024-03-29T07:09:29;19.90;61.50
42965;DHT22;28604;51.204;22.552;2024-03-29T07:11:55;20.00;60.60
42965;DHT22;28604;51.204;22.552;2024-03-29T07:14:21;20.20;60.70
42965;DHT22;28604;51.204;22.552;2024-03-29T07:16:49;20.30;60.50
42965;DHT22;28604;51.204;22.552;2024-03-29T07:19:15;20.30;59.50
42965;DHT22;28604;51.204;22.552;2024-03-29T07:21:43;20.50;58.60
42965;DHT22;28604;51.204;22.552;2024-03-29T07:24:08;20.50;58.80
42965;DHT22;28604;51.204;22.552;2024-03-29T07:26:34;20.60;58.50
42965;DHT22;28604;51.204;22.552;2024-03-29T07:29:00;20.80;58.30
42965;DHT22;28604;51.204;22.552;2024-03-29T07:31:26;20.80;58.00
42965;DHT22;28604;51.204;22.552;2024-03-29T07:33:52;20.70;56.60
42965;DHT22;28604;51.204;22.552;2024-03-29T07:36:18;20.70;57.30
42965;DHT22;28604;51.204;22.552;2024-03-29T07:38:44;20.70;56.90
42965;DHT22;28604;51.204;22.552;2024-03-29T07:41:10;20.80;57.10
42965;DHT22;28604;51.204;22.552;2024-03-29T07:43:39;20.90;56.10
42965;DHT22;28604;51.204;22.552;2024-03-29T07:46:06;21.00;56.00
42965;DHT22;28604;51.204;22.552;2024-03-29T07:48:34;21.30;55.90
42965;DHT22;28604;51.204;22.552;2024-03-29T07:51:00;21.40;56.20
42965;DHT22;28604;51.204;22.552;2024-03-29T07:53:26;21.60;55.30
42965;DHT22;28604;51.204;22.552;2024-03-29T07:55:52;21.60;54.60
42965;DHT22;28604;51.204;22.552;2024-03-29T07:58:18;21.70;54.80
42965;DHT22;28604;51.204;22.552;2024-03-29T08:00:44;21.80;54.80
42965;DHT22;28604;51.204;22.552;2024-03-29T08:03:10;21.80;54.50
42965;DHT22;28604;51.204;22.552;2024-03-29T08:05:36;21.80;54.90
42965;DHT22;28604;51.204;22.552;2024-03-29T08:08:03;21.70;54.00
42965;DHT22;28604;51.204;22.552;2024-03-29T08:10:29;21.70;53.50
42965;DHT22;28604;51.204;22.552;2024-03-29T08:12:55;21.80;54.00
42965;DHT22;28604;51.204;22.552;2024-03-29T08:15:21;21.90;54.20
42965;DHT22;28604;51.204;22.552;2024-03-29T08:17:47;22.10;53.90
42965;DHT22;28604;51.204;22.552;2024-03-29T08:20:13;22.00;53.30
42965;DHT22;28604;51.204;22.552;2024-03-29T08:22:39;22.00;53.70
42965;DHT22;28604;51.204;22.552;2024-03-29T08:25:05;21.90;53.20
42965;DHT22;28604;51.204;22.552;2024-03-29T08:27:30;21.80;54.00
42965;DHT22;28604;51.204;22.552;2024-03-29T08:29:56;21.90;53.50
42965;DHT22;28604;51.204;22.552;2024-03-29T08:32:22;21.80;52.80
42965;DHT22;28604;51.204;22.552;2024-03-29T08:34:48;21.80;53.00
42965;DHT22;28604;51.204;22.552;2024-03-29T08:37:14;21.90;53.10
42965;DHT22;28604;51.204;22.552;2024-03-29T08:39:40;22.10;53.30
42965;DHT22;28604;51.204;22.552;2024-03-29T08:42:05;22.10;52.30
42965;DHT22;28604;51.204;22.552;2024-03-29T08:44:32;22.20;52.70
42965;DHT22;28604;51.204;22.552;2024-03-29T08:46:58;22.40;52.40
42965;DHT22;28604;51.204;22.552;2024-03-29T08:49:25;22.50;51.60
42965;DHT22;28604;51.204;22.552;2024-03-29T08:51:50;22.60;51.10
42965;DHT22;28604;51.204;22.552;2024-03-29T08:54:16;22.70;49.80
42965;DHT22;28604;51.204;22.552;2024-03-29T08:56:42;22.80;50.50
42965;DHT22;28604;51.204;22.552;2024-03-29T08:59:08;23.00;50.60
42965;DHT22;28604;51.204;22.552;2024-03-29T09:01:41;23.10;51.60
42965;DHT22;28604;51.204;22.552;2024-03-29T09:04:07;23.20;52.00
42965;DHT22;28604;51.204;22.552;2024-03-29T09:06:36;23.30;52.00
42965;DHT22;28604;51.204;22.552;2024-03-29T09:09:03;23.30;51.20
42965;DHT22;28604;51.204;22.552;2024-03-29T09:11:30;23.30;50.00
42965;DHT22;28604;51.204;22.552;2024-03-29T09:13:56;23.30;50.00
42965;DHT22;28604;51.204;22.552;2024-03-29T09:16:24;23.30;50.10
42965;DHT22;28604;51.204;22.552;2024-03-29T09:18:50;23.20;49.80
42965;DHT22;28604;51.204;22.552;2024-03-29T09:21:16;23.20;49.90
42965;DHT22;28604;51.204;22.552;2024-03-29T09:23:45;23.30;50.00
42965;DHT22;28604;51.204;22.552;2024-03-29T09:26:10;23.40;49.80
42965;DHT22;28604;51.204;22.552;2024-03-29T09:28:38;23.50;50.60
42965;DHT22;28604;51.204;22.552;2024-03-29T09:31:04;23.40;50.40
42965;DHT22;28604;51.204;22.552;2024-03-29T09:33:30;23.30;49.70
42965;DHT22;28604;51.204;22.552;2024-03-29T09:35:56;23.40;50.90
42965;DHT22;28604;51.204;22.552;2024-03-29T09:38:27;23.40;50.50
42965;DHT22;28604;51.204;22.552;2024-03-29T09:41:35;23.40;50.10
42965;DHT22;28604;51.204;22.552;2024-03-29T09:43:42;23.40;50.30
42965;DHT22;28604;51.204;22.552;2024-03-29T09:46:10;23.30;49.70
42965;DHT22;28604;51.204;22.552;2024-03-29T09:48:37;23.30;50.10
42965;DHT22;28604;51.204;22.552;2024-03-29T09:51:06;23.00;50.10
42965;DHT22;28604;51.204;22.552;2024-03-29T09:53:32;22.90;50.60
42965;DHT22;28604;51.204;22.552;2024-03-29T09:55:59;22.80;50.30
42965;DHT22;28604;51.204;22.552;2024-03-29T09:58:25;22.70;51.70
42965;DHT22;28604;51.204;22.552;2024-03-29T10:00:51;22.70;52.10
42965;DHT22;28604;51.204;22.552;2024-03-29T10:03:17;22.60;51.70
42965;DHT22;28604;51.204;22.552;2024-03-29T10:05:48;22.60;50.20
42965;DHT22;28604;51.204;22.552;2024-03-29T10:08:14;22.50;51.60
42965;DHT22;28604;51.204;22.552;2024-03-29T10:10:40;22.70;50.00
42965;DHT22;28604;51.204;22.552;2024-03-29T10:13:07;22.80;49.50
42965;DHT22;28604;51.204;22.552;2024-03-29T10:15:33;23.00;49.80
42965;DHT22;28604;51.204;22.552;2024-03-29T10:18:03;23.10;49.40
42965;DHT22;28604;51.204;22.552;2024-03-29T10:20:28;23.10;50.30
42965;DHT22;28604;51.204;22.552;2024-03-29T10:22:55;23.10;49.80
42965;DHT22;28604;51.204;22.552;2024-03-29T10:25:21;23.00;49.70
42965;DHT22;28604;51.204;22.552;2024-03-29T10:27:47;23.00;50.20
42965;DHT22;28604;51.204;22.552;2024-03-29T10:30:13;23.00;48.50
42965;DHT22;28604;51.204;22.552;2024-03-29T10:32:45;22.80;48.10
42965;DHT22;28604;51.204;22.552;2024-03-29T10:35:10;22.80;47.50
42965;DHT22;28604;51.204;22.552;2024-03-29T10:37:36;22.80;47.10
42965;DHT22;28604;51.204;22.552;2024-03-29T10:40:07;22.80;48.40
42965;DHT22;28604;51.204;22.552;2024-03-29T10:42:36;22.60;49.10
42965;DHT22;28604;51.204;22.552;2024-03-29T10:45:02;22.60;48.50
42965;DHT22;28604;51.204;22.552;2024-03-29T10:47:28;22.60;48.10
42965;DHT22;28604;51.204;22.552;2024-03-29T10:49:55;22.50;48.80
42965;DHT22;28604;51.204;22.552;2024-03-29T10:52:22;22.50;49.20
42965;DHT22;28604;51.204;22.552;2024-03-29T10:54:48;22.50;48.60
42965;DHT22;28604;51.204;22.552;2024-03-29T10:57:22;22.60;48.60
42965;DHT22;28604;51.204;22.552;2024-03-29T11:00:11;22.30;49.30
42965;DHT22;28604;51.204;22.552;2024-03-29T11:05:09;22.20;51.20
42965;DHT22;28604;51.204;22.552;2024-03-29T11:07:39;22.20;50.50
42965;DHT22;28604;51.204;22.552;2024-03-29T11:10:05;22.20;47.70
42965;DHT22;28604;51.204;22.552;2024-03-29T11:12:39;22.20;48.90
42965;DHT22;28604;51.204;22.552;2024-03-29T11:15:06;22.10;48.80
42965;DHT22;28604;51.204;22.552;2024-03-29T11:17:36;22.00;48.80
42965;DHT22;28604;51.204;22.552;2024-03-29T11:20:03;22.10;49.30
42965;DHT22;28604;51.204;22.552;2024-03-29T11:22:30;22.10;49.50
42965;DHT22;28604;51.204;22.552;2024-03-29T11:24:56;22.00;50.30
42965;DHT22;28604;51.204;22.552;2024-03-29T11:27:22;21.80;51.20
42965;DHT22;28604;51.204;22.552;2024-03-29T11:29:49;21.90;49.90
42965;DHT22;28604;51.204;22.552;2024-03-29T11:32:33;21.90;49.30
42965;DHT22;28604;51.204;22.552;2024-03-29T11:34:59;21.70;50.40
42965;DHT22;28604;51.204;22.552;2024-03-29T11:37:29;21.70;51.30
42965;DHT22;28604;51.204;22.552;2024-03-29T11:39:54;21.50;51.40
42965;DHT22;28604;51.204;22.552;2024-03-29T11:42:35;21.40;51.90
42965;DHT22;28604;51.204;22.552;2024-03-29T11:45:00;21.30;51.50
42965;DHT22;28604;51.204;22.552;2024-03-29T11:47:27;21.10;51.90
42965;DHT22;28604;51.204;22.552;2024-03-29T11:49:56;21.10;52.20
42965;DHT22;28604;51.204;22.552;2024-03-29T11:52:22;21.00;52.00
42965;DHT22;28604;51.204;22.552;2024-03-29T11:54:48;21.00;51.60
42965;DHT22;28604;51.204;22.552;2024-03-29T11:57:15;20.90;52.20
42965;DHT22;28604;51.204;22.552;2024-03-29T11:59:40;20.90;52.20
42965;DHT22;28604;51.204;22.552;2024-03-29T12:02:07;20.80;51.80
42965;DHT22;28604;51.204;22.552;2024-03-29T12:04:35;20.80;51.60
42965;DHT22;28604;51.204;22.552;2024-03-29T12:07:05;20.80;51.60
42965;DHT22;28604;51.204;22.552;2024-03-29T12:09:30;20.80;52.80
42965;DHT22;28604;51.204;22.552;2024-03-29T12:11:56;20.80;52.20
42965;DHT22;28604;51.204;22.552;2024-03-29T12:14:25;20.90;51.10
42965;DHT22;28604;51.204;22.552;2024-03-29T12:16:52;20.90;51.50
42965;DHT22;28604;51.204;22.552;2024-03-29T12:19:23;20.90;50.80
42965;DHT22;28604;51.204;22.552;2024-03-29T12:21:50;20.90;50.40
42965;DHT22;28604;51.204;22.552;2024-03-29T12:24:16;20.70;49.90
42965;DHT22;28604;51.204;22.552;2024-03-29T12:26:42;20.70;50.70
42965;DHT22;28604;51.204;22.552;2024-03-29T12:29:07;20.70;50.00
42965;DHT22;28604;51.204;22.552;2024-03-29T12:31:33;20.70;48.80
42965;DHT22;28604;51.204;22.552;2024-03-29T12:33:59;20.70;48.80
42965;DHT22;28604;51.204;22.552;2024-03-29T12:36:25;20.70;48.70
42965;DHT22;28604;51.204;22.552;2024-03-29T12:38:54;20.80;48.40
42965;DHT22;28604;51.204;22.552;2024-03-29T12:41:23;20.90;48.60
42965;DHT22;28604;51.204;22.552;2024-03-29T12:43:50;20.90;48.30
42965;DHT22;28604;51.204;22.552;2024-03-29T12:46:17;20.80;48.60
42965;DHT22;28604;51.204;22.552;2024-03-29T12:48:43;20.90;48.00
42965;DHT22;28604;51.204;22.552;2024-03-29T12:51:09;20.80;48.30
42965;DHT22;28604;51.204;22.552;2024-03-29T12:53:37;20.90;48.00
42965;DHT22;28604;51.204;22.552;2024-03-29T12:56:03;20.80;48.40
42965;DHT22;28604;51.204;22.552;2024-03-29T12:58:29;20.80;48.20
42965;DHT22;28604;51.204;22.552;2024-03-29T13:00:55;20.70;48.10
42965;DHT22;28604;51.204;22.552;2024-03-29T13:03:21;20.70;48.50
42965;DHT22;28604;51.204;22.552;2024-03-29T13:05:47;20.70;48.20
42965;DHT22;28604;51.204;22.552;2024-03-29T13:08:14;20.70;48.70
42965;DHT22;28604;51.204;22.552;2024-03-29T13:10:41;20.70;48.40
42965;DHT22;28604;51.204;22.552;2024-03-29T13:13:08;20.70;48.50
42965;DHT22;28604;51.204;22.552;2024-03-29T13:15:35;20.70;47.70
42965;DHT22;28604;51.204;22.552;2024-03-29T13:18:01;20.50;46.90
42965;DHT22;28604;51.204;22.552;2024-03-29T13:20:28;20.50;47.70
42965;DHT22;28604;51.204;22.552;2024-03-29T13:22:53;20.50;47.70
42965;DHT22;28604;51.204;22.552;2024-03-29T13:25:21;20.50;47.50
42965;DHT22;28604;51.204;22.552;2024-03-29T13:27:51;20.50;46.90
42965;DHT22;28604;51.204;22.552;2024-03-29T13:30:21;20.60;47.30
42965;DHT22;28604;51.204;22.552;2024-03-29T13:32:47;20.60;46.30
42965;DHT22;28604;51.204;22.552;2024-03-29T13:35:13;20.60;46.80
42965;DHT22;28604;51.204;22.552;2024-03-29T13:37:39;20.60;46.30
42965;DHT22;28604;51.204;22.552;2024-03-29T13:40:06;20.70;46.60
42965;DHT22;28604;51.204;22.552;2024-03-29T13:42:32;20.70;46.20
42965;DHT22;28604;51.204;22.552;2024-03-29T13:44:58;20.70;45.70
42965;DHT22;28604;51.204;22.552;2024-03-29T13:47:24;20.60;45.50
42965;DHT22;28604;51.204;22.552;2024-03-29T13:49:50;20.50;45.80
42965;DHT22;28604;51.204;22.552;2024-03-29T13:52:20;20.50;46.60
42965;DHT22;28604;51.204;22.552;2024-03-29T13:54:46;20.60;46.30
42965;DHT22;28604;51.204;22.552;2024-03-29T13:57:13;20.70;45.50
42965;DHT22;28604;51.204;22.552;2024-03-29T13:59:39;20.80;44.80
42965;DHT22;28604;51.204;22.552;2024-03-29T14:02:05;21.00;44.50
42965;DHT22;28604;51.204;22.552;2024-03-29T14:04:31;21.00;44.90
42965;DHT22;28604;51.204;22.552;2024-03-29T14:06:56;21.10;45.70
42965;DHT22;28604;51.204;22.552;2024-03-29T14:09:22;21.10;45.90
42965;DHT22;28604;51.204;22.552;2024-03-29T14:11:48;21.00;45.40
42965;DHT22;28604;51.204;22.552;2024-03-29T14:14:14;20.90;45.70
42965;DHT22;28604;51.204;22.552;2024-03-29T14:16:40;20.80;45.50
42965;DHT22;28604;51.204;22.552;2024-03-29T14:19:06;20.80;46.00
42965;DHT22;28604;51.204;22.552;2024-03-29T14:21:31;20.70;45.80
42965;DHT22;28604;51.204;22.552;2024-03-29T14:23:57;20.70;46.60
42965;DHT22;28604;51.204;22.552;2024-03-29T14:26:23;20.70;47.60
42965;DHT22;28604;51.204;22.552;2024-03-29T14:28:49;20.70;47.60
42965;DHT22;28604;51.204;22.552;2024-03-29T14:31:15;20.70;47.30
42965;DHT22;28604;51.204;22.552;2024-03-29T14:33:41;20.70;46.60
42965;DHT22;28604;51.204;22.552;2024-03-29T14:36:07;20.70;46.70
42965;DHT22;28604;51.204;22.552;2024-03-29T14:38:33;20.60;46.90
42965;DHT22;28604;51.204;22.552;2024-03-29T14:40:59;20.50;46.30
42965;DHT22;28604;51.204;22.552;2024-03-29T14:43:25;20.50;45.90
42965;DHT22;28604;51.204;22.552;2024-03-29T14:45:50;20.40;46.10
42965;DHT22;28604;51.204;22.552;2024-03-29T14:48:18;20.40;46.40
42965;DHT22;28604;51.204;22.552;2024-03-29T14:50:44;20.40;46.30
42965;DHT22;28604;51.204;22.552;2024-03-29T14:53:10;20.30;46.20
42965;DHT22;28604;51.204;22.552;2024-03-29T14:55:35;20.20;47.40
42965;DHT22;28604;51.204;22.552;2024-03-29T14:58:05;20.20;47.10
42965;DHT22;28604;51.204;22.552;2024-03-29T15:00:31;20.30;46.90
42965;DHT22;28604;51.204;22.552;2024-03-29T15:02:57;20.30;46.70
42965;DHT22;28604;51.204;22.552;2024-03-29T15:05:23;20.20;47.10
42965;DHT22;28604;51.204;22.552;2024-03-29T15:07:53;20.30;47.40
42965;DHT22;28604;51.204;22.552;2024-03-29T15:10:19;20.30;47.40
42965;DHT22;28604;51.204;22.552;2024-03-29T15:12:47;20.30;46.90
42965;DHT22;28604;51.204;22.552;2024-03-29T15:15:13;20.30;46.70
42965;DHT22;28604;51.204;22.552;2024-03-29T15:17:39;20.20;46.30